Allenton, WI

8:59 AM CST on December 27, 2014 (GMT -0600)
APRSWXNET West Bend WI US | Change Station
CLOSE
Current Station
Personal Weather Station
Location: West Bend, WI
Elevation: 1099 ft
Nearby Weather Stations

Elev 1099 ft 43.45 °N, 88.26 °W | Updated 28 minutes ago

Overcast
Overcast
45 °F
Feels Like 41 °F
N
7
Wind Variable Wind from South
Gusts 14.0 mph

Today
High -- | Low -- °F
--% Chance of Precip.
Yesterday
High -- | Low -- °F
Precip. -- in
7:25 AM 4:23 PM
Waxing Crescent, 37% visible
Pressure 29.83 in
Visibility 5.0 miles
Clouds Overcast 500 ft
Windchill 41 °F
Dew Point 44 °F
Humidity 96%
Rainfall 0.03 in
Snow Depth Not available.
UV 0 out of 12
Pollen .10 out of 12
Air Quality Not available.
Flu Activity Not available.
METAR KETB 271430Z AUTO 20009G17KT 5SM RA OVC005 07/06 A2983 RMK AO2

More Conditions Fewer Conditions

Pressure 29.83 in
Visibility 5.0 miles
Clouds Overcast 500 ft
Windchill 41 °F
Dew Point 44 °F
Humidity 96%
Rainfall 0.03 in
Snow Depth Not available.
UV 0 out of 12
Pollen .10 out of 12
Air Quality Not available.
Flu Activity Not available.
METAR KETB 271430Z AUTO 20009G17KT 5SM RA OVC005 07/06 A2983 RMK AO2

More Conditions Fewer Conditions

10-Day Weather Forecast

Almanac

Astronomy

Dec. 27, 2014 Rise Set
Actual Time
Civil Twilight
Nautical Twilight
Astronomical Twilight
Moon
Length of Visible Light
Length of Day
Tomorrow will be .
, % of the Moon is Illuminated

Today's Extremes

State Highs State Lows

Community

WunderPhotos

Upload Photos

1,780,918 photos uploaded!

WunderBlogs® & News

Nearby

Air Quality

  Air Quality AQ Index Pollutant
Not available.

Snow Depth

Station Depth Elevation

Earthquake Activity

City Distance Mag. Time & Date
Minimum magnitude displayed is 2.5.

Coastal Water Temperatures

Place Temperature

Nearby Weather Stations